createdAt,value
2018-12-05T00:02:27.601Z,101362.34
2018-12-05T00:04:55.128Z,101355.83
2018-12-05T00:07:22.679Z,101353.73
2018-12-05T00:09:50.215Z,101347.76
2018-12-05T00:12:17.735Z,101354.04
2018-12-05T00:14:45.401Z,101363.16
2018-12-05T00:17:12.932Z,101365.35
2018-12-05T00:19:40.459Z,101357.97
2018-12-05T00:22:08.323Z,101351.23
2018-12-05T00:24:35.848Z,101364.75
2018-12-05T00:27:03.376Z,101369.47
2018-12-05T00:29:30.972Z,101368.53
2018-12-05T00:31:58.500Z,101370.17
2018-12-05T00:34:26.046Z,101368.04
2018-12-05T00:36:53.716Z,101366.09
2018-12-05T00:39:21.251Z,101373.38
2018-12-05T00:41:48.813Z,101380.55
2018-12-05T00:44:16.495Z,101376.64
2018-12-05T00:46:44.040Z,101376.46
2018-12-05T00:49:11.676Z,101368.69
2018-12-05T00:51:39.560Z,101366.48
2018-12-05T00:54:07.091Z,101355.14
2018-12-05T00:56:35.036Z,101350.22
2018-12-05T00:59:02.635Z,101343.53
2018-12-05T01:01:30.180Z,101329.69
2018-12-05T01:03:57.828Z,101323.73
2018-12-05T01:06:25.536Z,101325.61
2018-12-05T01:08:53.068Z,101319.08
2018-12-05T01:11:20.609Z,101319.52
2018-12-05T01:13:48.172Z,101328.11
2018-12-05T01:16:15.711Z,101333.88
2018-12-05T01:18:43.265Z,101337.50
2018-12-05T01:21:10.870Z,101337.42
2018-12-05T01:23:38.400Z,101349.60
2018-12-05T01:26:06.040Z,101346.55
2018-12-05T01:28:33.761Z,101354.19
2018-12-05T01:31:01.304Z,101354.62
2018-12-05T01:33:28.828Z,101355.81
2018-12-05T01:35:56.540Z,101357.80
2018-12-05T01:38:24.087Z,101354.63
2018-12-05T01:40:51.615Z,101358.13
2018-12-05T01:43:19.180Z,101357.67
2018-12-05T01:45:46.713Z,101342.36
2018-12-05T01:48:14.245Z,101337.30
2018-12-05T01:50:42.056Z,101335.07
2018-12-05T01:53:09.700Z,101338.42
2018-12-05T01:55:37.228Z,101336.89
2018-12-05T01:58:04.795Z,101335.25
2018-12-05T02:00:32.524Z,101339.71
2018-12-05T02:03:00.056Z,101347.67
2018-12-05T02:05:27.772Z,101338.40
2018-12-05T02:07:55.304Z,101334.30
2018-12-05T02:10:22.862Z,101337.05
2018-12-05T02:12:50.648Z,101336.89
2018-12-05T02:15:18.164Z,101344.55
2018-12-05T02:17:45.922Z,101334.27
2018-12-05T02:20:13.500Z,101333.97
2018-12-05T02:22:41.020Z,101331.70
2018-12-05T02:25:08.564Z,101326.16
2018-12-05T02:27:36.124Z,101323.25
2018-12-05T02:30:04.348Z,101322.23
2018-12-05T02:32:31.926Z,101323.16
2018-12-05T02:34:59.636Z,101322.11
2018-12-05T02:37:27.161Z,101328.17
2018-12-05T02:39:55.279Z,101339.27
2018-12-05T02:42:23.004Z,101346.83
2018-12-05T02:44:50.528Z,101337.38
2018-12-05T02:47:18.288Z,101339.02
2018-12-05T02:49:45.988Z,101336.06
2018-12-05T02:52:13.532Z,101326.77
2018-12-05T02:54:41.090Z,101328.37
2018-12-05T02:57:08.765Z,101324.77
2018-12-05T02:59:36.296Z,101325.38
2018-12-05T03:02:03.892Z,101329.28
2018-12-05T03:04:31.452Z,101328.30
2018-12-05T03:06:58.986Z,101324.30
2018-12-05T03:09:26.510Z,101316.44
2018-12-05T03:11:54.738Z,101314.77
2018-12-05T03:14:22.274Z,101310.14
2018-12-05T03:16:50.449Z,101305.92
2018-12-05T03:19:18.043Z,101307.80
2018-12-05T03:21:45.569Z,101291.14
2018-12-05T03:24:13.201Z,101283.88
2018-12-05T03:26:40.765Z,101280.63
2018-12-05T03:29:08.292Z,101280.28
2018-12-05T03:31:35.862Z,101279.50
2018-12-05T03:34:03.700Z,101280.66
2018-12-05T03:36:31.280Z,101280.45
2018-12-05T03:38:58.848Z,101290.19
2018-12-05T03:41:26.742Z,101293.90
2018-12-05T03:43:54.300Z,101298.95
2018-12-05T03:46:21.837Z,101297.90
2018-12-05T03:48:49.404Z,101295.10
2018-12-05T03:51:16.940Z,101300.94
2018-12-05T03:53:44.491Z,101299.13
2018-12-05T03:56:12.049Z,101291.21
2018-12-05T03:58:39.581Z,101294.89
2018-12-05T04:01:07.242Z,101295.52
2018-12-05T04:03:35.044Z,101295.48
2018-12-05T04:06:02.579Z,101290.63
2018-12-05T04:08:30.103Z,101298.11
2018-12-05T04:10:57.836Z,101301.75
2018-12-05T04:13:25.369Z,101294.91
2018-12-05T04:15:52.900Z,101286.73
2018-12-05T04:18:20.465Z,101280.35
2018-12-05T04:20:48.000Z,101279.56
2018-12-05T04:23:15.526Z,101272.88
2018-12-05T04:25:45.120Z,101280.87
2018-12-05T04:28:12.644Z,101285.42
2018-12-05T04:30:40.206Z,101289.30
2018-12-05T04:33:07.759Z,101288.64
2018-12-05T04:35:35.285Z,101299.58
2018-12-05T04:38:02.935Z,101307.44
2018-12-05T04:40:30.768Z,101313.20
2018-12-05T04:42:58.301Z,101311.96
2018-12-05T04:45:25.829Z,101311.73
2018-12-05T04:47:53.660Z,101315.27
2018-12-05T04:50:21.191Z,101313.89
2018-12-05T04:52:48.744Z,101316.35
2018-12-05T04:55:16.331Z,101324.73
2018-12-05T04:57:43.950Z,101317.08
2018-12-05T05:00:11.480Z,101317.35
2018-12-05T05:02:39.172Z,101315.30
2018-12-05T05:05:06.911Z,101315.27
2018-12-05T05:07:34.432Z,101324.44
2018-12-05T05:10:02.099Z,101318.58
2018-12-05T05:12:29.620Z,101315.09
2018-12-05T05:14:57.164Z,101318.45
2018-12-05T05:17:24.879Z,101324.43
2018-12-05T05:19:52.395Z,101327.52
2018-12-05T05:22:19.916Z,101326.08
2018-12-05T05:24:47.662Z,101314.45
2018-12-05T05:27:15.186Z,101314.34
2018-12-05T05:29:42.699Z,101310.28
2018-12-05T05:32:10.607Z,101310.19
2018-12-05T05:34:40.128Z,101308.23
2018-12-05T05:37:07.657Z,101313.78
2018-12-05T05:39:35.473Z,101314.24
2018-12-05T05:42:03.003Z,101315.70
2018-12-05T05:44:30.528Z,101308.20
2018-12-05T05:46:58.087Z,101315.52
2018-12-05T05:49:25.612Z,101321.37
2018-12-05T05:51:53.141Z,101319.52
2018-12-05T05:54:20.715Z,101321.66
2018-12-05T05:56:48.252Z,101315.98
2018-12-05T05:59:15.770Z,101321.20
2018-12-05T06:01:43.381Z,101318.97
2018-12-05T06:04:10.912Z,101328.52
2018-12-05T06:06:38.433Z,101330.86
2018-12-05T06:09:07.096Z,101325.98
2018-12-05T06:11:34.619Z,101324.41
2018-12-05T06:14:02.147Z,101320.16
2018-12-05T06:16:29.906Z,101308.27
2018-12-05T06:18:57.433Z,101295.16
2018-12-05T06:21:24.959Z,101284.00
2018-12-05T06:23:52.696Z,101292.47
2018-12-05T06:26:20.243Z,101301.11
2018-12-05T06:28:47.776Z,101302.80
2018-12-05T06:31:15.456Z,101305.56
2018-12-05T06:33:42.975Z,101300.69
2018-12-05T06:36:10.507Z,101301.95
2018-12-05T06:38:39.174Z,101302.90
2018-12-05T06:41:08.659Z,101302.84
2018-12-05T06:43:37.124Z,101304.55
2018-12-05T06:46:04.688Z,101307.33
2018-12-05T06:48:32.212Z,101303.77
2018-12-05T06:50:59.737Z,101302.00
2018-12-05T06:53:27.320Z,101307.62
2018-12-05T06:55:54.853Z,101306.42
2018-12-05T06:58:22.416Z,101300.75
2018-12-05T07:00:50.269Z,101296.02
2018-12-05T07:03:17.806Z,101285.66
2018-12-05T07:05:45.360Z,101295.90
2018-12-05T07:08:13.079Z,101299.69
2018-12-05T07:10:40.600Z,101299.38
2018-12-05T07:13:08.139Z,101305.99
2018-12-05T07:15:35.711Z,101307.36
2018-12-05T07:18:03.362Z,101312.61
2018-12-05T07:20:30.934Z,101301.89
2018-12-05T07:22:58.652Z,101303.31
2018-12-05T07:25:26.197Z,101309.93
2018-12-05T07:27:53.719Z,101312.18
2018-12-05T07:30:21.276Z,101316.62
2018-12-05T07:32:49.751Z,101319.70
2018-12-05T07:35:17.276Z,101316.17
2018-12-05T07:37:44.941Z,101317.88
2018-12-05T07:40:12.469Z,101316.14
2018-12-05T07:42:39.996Z,101312.44
2018-12-05T07:45:08.010Z,101312.89
2018-12-05T07:47:35.537Z,101312.92
2018-12-05T07:50:03.566Z,101311.27
2018-12-05T07:52:31.275Z,101305.08
2018-12-05T07:54:58.830Z,101302.00
2018-12-05T07:57:26.392Z,101304.95
2018-12-05T07:59:53.951Z,101317.86
2018-12-05T08:02:21.588Z,101322.44
2018-12-05T08:04:49.123Z,101326.86
2018-12-05T08:07:16.943Z,101326.05
2018-12-05T08:09:44.468Z,101324.69
2018-12-05T08:12:11.996Z,101330.88
2018-12-05T08:14:39.725Z,101332.06
2018-12-05T08:17:07.271Z,101330.82
2018-12-05T08:19:34.820Z,101327.80
2018-12-05T08:22:02.396Z,101326.78
2018-12-05T08:24:29.928Z,101322.89
2018-12-05T08:26:57.468Z,101329.03
2018-12-05T08:29:25.184Z,101325.97
2018-12-05T08:31:52.749Z,101334.41
2018-12-05T08:34:20.272Z,101343.41
2018-12-05T08:36:47.858Z,101344.27
2018-12-05T08:39:15.380Z,101338.63
2018-12-05T08:41:42.995Z,101331.20
2018-12-05T08:44:10.558Z,101336.89
2018-12-05T08:46:38.084Z,101335.27
2018-12-05T08:49:06.070Z,101335.34
2018-12-05T08:51:33.728Z,101331.55
2018-12-05T08:54:01.269Z,101330.14
2018-12-05T08:56:28.824Z,101322.70
2018-12-05T08:58:56.507Z,101315.41
2018-12-05T09:01:25.068Z,101305.81
2018-12-05T09:03:52.608Z,101306.45
2018-12-05T09:06:20.182Z,101310.02
2018-12-05T09:08:47.712Z,101301.41
2018-12-05T09:11:15.268Z,101290.35
2018-12-05T09:13:43.009Z,101293.91
2018-12-05T09:16:10.538Z,101296.49
2018-12-05T09:18:38.087Z,101295.80
2018-12-05T09:21:05.773Z,101295.48
2018-12-05T09:23:33.303Z,101294.20
2018-12-05T09:26:00.932Z,101295.73
2018-12-05T09:28:28.495Z,101295.61
2018-12-05T09:30:56.030Z,101299.27
2018-12-05T09:33:23.556Z,101301.16
2018-12-05T09:35:51.140Z,101295.88
2018-12-05T09:38:18.667Z,101294.65
2018-12-05T09:40:46.234Z,101295.72
2018-12-05T09:43:13.800Z,101291.91
2018-12-05T09:45:41.328Z,101294.09
2018-12-05T09:48:08.860Z,101294.58
2018-12-05T09:50:36.593Z,101292.38
2018-12-05T09:53:04.126Z,101291.07
2018-12-05T09:55:31.685Z,101281.84
2018-12-05T09:57:59.409Z,101278.45
2018-12-05T10:00:27.042Z,101270.95
2018-12-05T10:02:54.572Z,101271.79
2018-12-05T10:05:22.139Z,101269.22
2018-12-05T10:07:49.696Z,101272.28
2018-12-05T10:10:17.223Z,101269.36
2018-12-05T10:12:44.960Z,101262.38
2018-12-05T10:15:12.528Z,101268.08
2018-12-05T10:17:40.167Z,101258.34
2018-12-05T10:20:07.950Z,101249.64
2018-12-05T10:22:35.476Z,101243.01
2018-12-05T10:25:03.112Z,101244.49
2018-12-05T10:27:30.803Z,101234.02
2018-12-05T10:29:58.348Z,101229.66
2018-12-05T10:32:25.905Z,101226.22
2018-12-05T10:34:53.500Z,101222.23
2018-12-05T10:37:21.052Z,101221.41
2018-12-05T10:39:48.584Z,101220.06
2018-12-05T10:42:16.147Z,101227.13
2018-12-05T10:44:43.783Z,101219.11
2018-12-05T10:47:11.312Z,101220.83
2018-12-05T10:49:39.008Z,101224.70
2018-12-05T10:52:06.647Z,101226.46
2018-12-05T10:54:34.273Z,101225.90
2018-12-05T10:57:02.235Z,101226.83
2018-12-05T10:59:29.768Z,101222.37
2018-12-05T11:02:02.920Z,101209.36
2018-12-05T11:04:36.057Z,101204.20
2018-12-05T11:07:09.047Z,101201.47
2018-12-05T11:09:42.169Z,101189.92
2018-12-05T11:15:22.557Z,101192.10
2018-12-05T11:17:55.752Z,101188.61
2018-12-05T11:20:28.819Z,101187.20
2018-12-05T11:23:02.111Z,101182.86
2018-12-05T11:25:30.056Z,101177.55
2018-12-05T11:27:57.582Z,101180.78
2018-12-05T11:30:25.665Z,101175.62
2018-12-05T11:32:53.191Z,101166.86
2018-12-05T11:35:20.920Z,101162.02
2018-12-05T11:37:48.587Z,101160.66
2018-12-05T11:40:16.111Z,101157.13
2018-12-05T11:42:43.759Z,101152.30
2018-12-05T11:45:11.576Z,101146.98
2018-12-05T11:47:39.203Z,101135.54
2018-12-05T11:50:07.044Z,101132.02
2018-12-05T11:52:34.673Z,101128.94
2018-12-05T11:55:02.200Z,101132.55
2018-12-05T11:57:29.724Z,101126.81
2018-12-05T11:59:57.307Z,101122.85
2018-12-05T12:02:24.825Z,101118.86
2018-12-05T12:04:52.356Z,101124.61
2018-12-05T12:07:19.908Z,101121.53
2018-12-05T12:09:47.559Z,101120.22
2018-12-05T12:12:20.740Z,101120.22
2018-12-05T12:14:48.256Z,101127.72
2018-12-05T12:17:15.786Z,101130.36
2018-12-05T12:19:43.383Z,101116.73
2018-12-05T12:22:10.901Z,101104.83
2018-12-05T12:24:38.467Z,101094.70
2018-12-05T12:27:06.132Z,101096.91
2018-12-05T12:29:33.651Z,101095.61
2018-12-05T12:32:01.180Z,101096.01
2018-12-05T12:34:28.735Z,101087.63
2018-12-05T12:36:56.264Z,101083.69
2018-12-05T12:39:23.804Z,101077.98
2018-12-05T12:41:51.555Z,101071.36
2018-12-05T12:44:19.079Z,101069.62
2018-12-05T12:46:46.591Z,101061.27
2018-12-05T12:49:14.152Z,101059.92
2018-12-05T12:51:41.682Z,101053.75
2018-12-05T12:54:09.211Z,101052.89
2018-12-05T12:56:36.765Z,101048.48
2018-12-05T12:59:04.288Z,101048.93
2018-12-05T13:01:31.816Z,101052.42
2018-12-05T13:03:59.534Z,101048.05
2018-12-05T13:06:27.069Z,101048.05
2018-12-05T13:08:54.636Z,101035.73
2018-12-05T13:11:23.152Z,101026.94
2018-12-05T13:13:50.705Z,101026.91
2018-12-05T13:16:18.248Z,101024.73
2018-12-05T13:18:46.139Z,101022.09
2018-12-05T13:21:13.692Z,101026.04
2018-12-05T13:23:41.207Z,101013.25
2018-12-05T13:26:08.788Z,101014.55
2018-12-05T13:28:36.312Z,101017.20
2018-12-05T13:31:03.841Z,101016.31
2018-12-05T13:33:31.412Z,101012.80
2018-12-05T13:35:58.931Z,101008.42
2018-12-05T13:38:26.444Z,101000.91
2018-12-05T13:40:54.001Z,100997.39
2018-12-05T13:43:21.516Z,100990.77
2018-12-05T13:45:49.040Z,100987.24
2018-12-05T13:48:17.549Z,100977.09
2018-12-05T13:50:45.071Z,100972.70
2018-12-05T13:53:12.649Z,100976.67
2018-12-05T13:55:40.304Z,100979.75
2018-12-05T13:58:07.828Z,100974.48
2018-12-05T14:00:35.352Z,100964.83
2018-12-05T14:03:02.935Z,100960.42
2018-12-05T14:05:30.482Z,100953.38
2018-12-05T14:07:58.035Z,100950.77
2018-12-05T14:10:25.592Z,100949.91
2018-12-05T14:12:55.133Z,100939.34
2018-12-05T14:15:22.764Z,100947.27
2018-12-05T14:17:50.619Z,100927.91
2018-12-05T14:20:18.148Z,100935.83
2018-12-05T14:22:45.683Z,100929.66
2018-12-05T14:25:14.814Z,100938.01
2018-12-05T14:27:42.603Z,100944.58
2018-12-05T14:30:10.177Z,100943.70
2018-12-05T14:32:37.921Z,100943.68
2018-12-05T14:35:05.659Z,100938.84
2018-12-05T14:37:33.176Z,100932.67
2018-12-05T14:40:01.012Z,100931.80
2018-12-05T14:42:28.547Z,100926.13
2018-12-05T14:44:56.067Z,100927.89
2018-12-05T14:47:23.688Z,100925.25
2018-12-05T14:49:51.253Z,100923.47
2018-12-05T14:52:18.780Z,100915.54
2018-12-05T14:54:46.368Z,100910.72
2018-12-05T14:57:13.900Z,100913.38
2018-12-05T14:59:41.424Z,100903.67
2018-12-05T15:02:09.001Z,100902.38
2018-12-05T15:04:36.540Z,100903.27
2018-12-05T15:07:04.064Z,100906.34
2018-12-05T15:09:31.629Z,100904.12
2018-12-05T15:11:59.191Z,100902.34
2018-12-05T15:14:26.719Z,100902.33
2018-12-05T15:16:54.288Z,100897.08
2018-12-05T15:19:21.821Z,100909.38
2018-12-05T15:21:49.551Z,100912.94
2018-12-05T15:24:17.416Z,100914.69
2018-12-05T15:26:45.540Z,100905.45
2018-12-05T15:29:13.191Z,100895.81
2018-12-05T15:31:40.901Z,100894.92
2018-12-05T15:34:08.428Z,100890.98
2018-12-05T15:36:35.953Z,100890.11
2018-12-05T15:39:05.112Z,100890.52
2018-12-05T15:41:32.636Z,100880.88
2018-12-05T15:44:01.124Z,100885.69
2018-12-05T15:46:28.706Z,100887.44
2018-12-05T15:48:56.232Z,100889.23
2018-12-05T15:51:23.763Z,100883.50
2018-12-05T15:53:51.336Z,100880.42
2018-12-05T15:56:18.968Z,100880.39
2018-12-05T15:58:46.508Z,100880.39
2018-12-05T16:01:14.079Z,100874.69
2018-12-05T16:03:43.332Z,100868.07
2018-12-05T16:06:11.219Z,100867.66
2018-12-05T16:08:39.146Z,100862.36
2018-12-05T16:11:06.675Z,100856.21
2018-12-05T16:13:34.200Z,100845.21
2018-12-05T16:16:01.763Z,100849.20
2018-12-05T16:18:29.295Z,100841.28
2018-12-05T16:20:56.833Z,100840.37
2018-12-05T16:23:24.432Z,100839.95
2018-12-05T16:25:52.012Z,100839.07
2018-12-05T16:28:19.616Z,100829.39
2018-12-05T16:30:47.188Z,100828.97
2018-12-05T16:33:14.716Z,100832.49
2018-12-05T16:35:42.253Z,100830.27
2018-12-05T16:38:09.816Z,100824.56
2018-12-05T16:40:37.362Z,100818.41
2018-12-05T16:43:04.908Z,100822.81
2018-12-05T16:45:32.629Z,100813.14
2018-12-05T16:48:00.152Z,100811.80
2018-12-05T16:50:27.688Z,100803.48
2018-12-05T16:52:55.251Z,100808.73
2018-12-05T16:55:22.784Z,100793.80
2018-12-05T16:57:50.321Z,100782.81
2018-12-05T17:00:18.161Z,100784.12
2018-12-05T17:02:45.690Z,100781.95
2018-12-05T17:05:13.319Z,100786.31
2018-12-05T17:07:41.147Z,100777.10
2018-12-05T17:10:08.780Z,100775.78
2018-12-05T17:12:36.319Z,100776.20
2018-12-05T17:15:04.240Z,100774.89
2018-12-05T17:17:31.773Z,100770.94
2018-12-05T17:19:59.300Z,100775.36
2018-12-05T17:22:27.012Z,100777.53
2018-12-05T17:24:55.551Z,100777.54
2018-12-05T17:27:23.301Z,100788.11
2018-12-05T17:29:51.020Z,100784.14
2018-12-05T17:32:18.543Z,100761.30
2018-12-05T17:34:46.072Z,100791.61
2018-12-05T17:37:13.796Z,100796.91
2018-12-05T17:39:41.320Z,100793.32
2018-12-05T17:42:08.850Z,100788.48
2018-12-05T17:44:36.403Z,100786.75
2018-12-05T17:47:03.933Z,100777.98
2018-12-05T17:49:31.456Z,100778.84
2018-12-05T17:51:59.160Z,100764.33
2018-12-05T17:54:26.710Z,100748.53
2018-12-05T17:56:54.323Z,100743.70
2018-12-05T17:59:22.046Z,100738.84
2018-12-05T18:01:50.076Z,100729.63
2018-12-05T18:04:17.609Z,100722.59
2018-12-05T18:06:45.339Z,100718.20
2018-12-05T18:09:12.868Z,100708.53
2018-12-05T18:11:40.396Z,100721.28
2018-12-05T18:14:07.964Z,100727.86
2018-12-05T18:16:35.487Z,100730.45
2018-12-05T18:19:03.009Z,100726.08
2018-12-05T18:21:30.707Z,100722.13
2018-12-05T18:23:58.261Z,100690.06
2018-12-05T18:26:25.791Z,100661.55
2018-12-05T18:28:53.364Z,100670.80
2018-12-05T18:31:20.909Z,100672.09
2018-12-05T18:33:48.440Z,100680.85
2018-12-05T18:36:16.169Z,100672.91
2018-12-05T18:38:43.720Z,100683.91
2018-12-05T18:41:11.244Z,100700.50
2018-12-05T18:43:39.042Z,100698.83
2018-12-05T18:46:06.580Z,100686.95
2018-12-05T18:48:34.143Z,100686.05
2018-12-05T18:51:01.825Z,100672.44
2018-12-05T18:53:29.368Z,100665.05
2018-12-05T18:55:56.920Z,100668.08
2018-12-05T18:58:24.612Z,100669.84
2018-12-05T19:00:52.136Z,100672.47
2018-12-05T19:03:19.674Z,100675.52
2018-12-05T19:05:47.489Z,100665.47
2018-12-05T19:08:15.031Z,100667.66
2018-12-05T19:10:42.561Z,100671.58
2018-12-05T19:13:10.377Z,100660.64
2018-12-05T19:15:37.909Z,100639.12
2018-12-05T19:18:05.471Z,100655.81
2018-12-05T19:20:33.287Z,100651.80
2018-12-05T19:23:00.824Z,100645.20
2018-12-05T19:25:28.347Z,100635.12
2018-12-05T19:27:55.906Z,100632.95
2018-12-05T19:30:23.424Z,100620.66
2018-12-05T19:32:50.948Z,100628.55
2018-12-05T19:35:18.531Z,100615.83
2018-12-05T19:37:46.060Z,100618.48
2018-12-05T19:40:13.589Z,100614.45
2018-12-05T19:42:41.299Z,100605.30
2018-12-05T19:45:09.038Z,100608.38
2018-12-05T19:47:36.568Z,100610.58
2018-12-05T19:50:05.232Z,100606.64
2018-12-05T19:52:33.367Z,100602.67
2018-12-05T19:55:00.891Z,100604.01
2018-12-05T19:57:28.532Z,100607.95
2018-12-05T19:59:56.055Z,100607.94
2018-12-05T20:02:23.579Z,100612.30
2018-12-05T20:04:51.370Z,100609.69
2018-12-05T20:07:18.896Z,100597.42
2018-12-05T20:09:46.428Z,100588.67
2018-12-05T20:12:14.214Z,100579.89
2018-12-05T20:14:41.735Z,100588.22
2018-12-05T20:17:10.032Z,100597.87
2018-12-05T20:19:38.110Z,100593.45
2018-12-05T20:22:05.649Z,100594.31
2018-12-05T20:24:33.292Z,100590.36
2018-12-05T20:27:00.950Z,100580.29
2018-12-05T20:29:28.483Z,100568.47
2018-12-05T20:31:56.012Z,100571.98
2018-12-05T20:34:23.730Z,100588.19
2018-12-05T20:36:51.272Z,100591.24
2018-12-05T20:39:25.714Z,100586.84
2018-12-05T20:41:48.449Z,100592.13
2018-12-05T20:44:15.976Z,100586.39
2018-12-05T20:46:43.508Z,100575.86
2018-12-05T20:49:11.205Z,100573.22
2018-12-05T20:51:38.740Z,100577.61
2018-12-05T20:54:06.271Z,100563.56
2018-12-05T20:56:33.861Z,100548.23
2018-12-05T20:59:02.016Z,100549.11
2018-12-05T21:01:29.945Z,100563.61
2018-12-05T21:03:57.840Z,100578.92
2018-12-05T21:06:25.378Z,100571.87
2018-12-05T21:08:53.816Z,100577.95
2018-12-05T21:11:21.527Z,100577.47
2018-12-05T21:13:49.057Z,100566.50
2018-12-05T21:16:16.588Z,100566.59
2018-12-05T21:18:44.155Z,100556.48
2018-12-05T21:21:11.680Z,100560.46
2018-12-05T21:23:39.334Z,100555.17
2018-12-05T21:26:07.340Z,100546.81
2018-12-05T21:28:34.882Z,100542.88
2018-12-05T21:31:02.415Z,100548.58
2018-12-05T21:33:30.400Z,100541.56
2018-12-05T21:35:57.937Z,100541.13
2018-12-05T21:38:25.479Z,100502.53
2018-12-05T21:40:53.175Z,100522.29
2018-12-05T21:43:20.712Z,100526.22
2018-12-05T21:45:48.243Z,100527.91
2018-12-05T21:48:15.828Z,100529.16
2018-12-05T21:50:43.376Z,100527.41
2018-12-05T21:53:10.907Z,100526.98
2018-12-05T21:55:38.630Z,100530.88
2018-12-05T21:58:06.171Z,100535.34
2018-12-05T22:00:33.707Z,100530.09
2018-12-05T22:03:01.271Z,100523.47
2018-12-05T22:05:28.802Z,100526.13
2018-12-05T22:07:56.470Z,100526.59
2018-12-05T22:10:24.032Z,100523.95
2018-12-05T22:12:51.560Z,100520.87
2018-12-05T22:15:19.125Z,100521.24
2018-12-05T22:17:46.696Z,100512.48
2018-12-05T22:20:14.217Z,100509.91
2018-12-05T22:22:41.748Z,100513.87
2018-12-05T22:25:09.443Z,100503.33
2018-12-05T22:27:36.963Z,100503.33
2018-12-05T22:30:05.609Z,100509.69
2018-12-05T22:32:33.457Z,100493.53
2018-12-05T22:35:00.997Z,100490.56
2018-12-05T22:37:28.531Z,100486.20
2018-12-05T22:39:56.247Z,100482.72
2018-12-05T22:42:23.797Z,100468.30
2018-12-05T22:44:51.325Z,100469.97
2018-12-05T22:47:18.988Z,100469.98
2018-12-05T22:49:46.520Z,100473.50
2018-12-05T22:52:14.048Z,100479.22
2018-12-05T22:54:41.716Z,100474.00
2018-12-05T22:57:13.099Z,100477.47
2018-12-05T22:59:41.796Z,100476.98
2018-12-05T23:02:09.657Z,100480.08
2018-12-05T23:04:37.208Z,100478.27
2018-12-05T23:07:04.772Z,100482.06
2018-12-05T23:09:32.308Z,100478.63
2018-12-05T23:11:59.840Z,100468.12
2018-12-05T23:14:27.500Z,100469.48
2018-12-05T23:16:55.028Z,100462.80
2018-12-05T23:19:22.559Z,100454.98
2018-12-05T23:21:50.279Z,100450.66
2018-12-05T23:24:17.807Z,100450.22
2018-12-05T23:26:45.344Z,100451.98
2018-12-05T23:29:12.904Z,100444.07
2018-12-05T23:31:40.439Z,100428.73
2018-12-05T23:34:07.972Z,100421.30
2018-12-05T23:36:35.637Z,100413.87
2018-12-05T23:39:04.185Z,100414.24
2018-12-05T23:41:31.711Z,100414.17
2018-12-05T23:43:59.546Z,100414.64
2018-12-05T23:46:27.184Z,100411.38
2018-12-05T23:48:54.722Z,100430.77
2018-12-05T23:51:22.444Z,100433.06
2018-12-05T23:53:49.965Z,100436.61
2018-12-05T23:56:17.491Z,100433.52
2018-12-05T23:58:45.223Z,100430.00
